7T31GM LFLB-EDDV
Flight info
| Callsign | 7T31GM |
|---|---|
| Flight time | N/A |
| Altitude | 30000 |
| Route | VENAT2C VENAT DCT TITIX/N0407F310 DCT LOHRE/N0404F320 Z99 ELNAT ELNAT5P |
| Aircraft | RJ1H/M-SDFGIRWY/LB1 |
Departure
| Time | 2026-04-22 11:21 |
|---|---|
| Airport | Chambéry Aix les Bains airport (LFLB) |
Arrival
| Time | N/A |
|---|---|
| Airport | Hannover Airport (EDDV) |
| Time | Latitude | Longitude | Altitude | Speed | Heading |
|---|---|---|---|---|---|
| 2026-04-22 10:59 | 45.64286 | 5.88176 | 783 ft | 0 kts | 87° |
| 2026-04-22 11:14 | 45.64286 | 5.88180 | 810 ft | 1 kts | 87° |
| 2026-04-22 11:14 | 45.64287 | 5.88204 | 783 ft | 3 kts | 87° |
| 2026-04-22 11:14 | 45.64288 | 5.88226 | 783 ft | 1 kts | 91° |
| 2026-04-22 11:15 | 45.64281 | 5.88240 | 783 ft | 2 kts | 144° |
| 2026-04-22 11:15 | 45.64259 | 5.88245 | 783 ft | 4 kts | 177° |
| 2026-04-22 11:15 | 45.64226 | 5.88248 | 783 ft | 6 kts | 177° |
| 2026-04-22 11:15 | 45.64188 | 5.88251 | 783 ft | 7 kts | 177° |
| 2026-04-22 11:16 | 45.64137 | 5.88255 | 783 ft | 7 kts | 180° |
| 2026-04-22 11:16 | 45.64098 | 5.88226 | 783 ft | 6 kts | 192° |
| 2026-04-22 11:16 | 45.64059 | 5.88225 | 783 ft | 5 kts | 204° |
| 2026-04-22 11:16 | 45.64048 | 5.88184 | 783 ft | 4 kts | 265° |
| 2026-04-22 11:17 | 45.64046 | 5.88145 | 783 ft | 4 kts | 265° |
| 2026-04-22 11:17 | 45.64045 | 5.88109 | 783 ft | 4 kts | 270° |
| 2026-04-22 11:17 | 45.64043 | 5.88049 | 782 ft | 8 kts | 265° |
| 2026-04-22 11:17 | 45.64006 | 5.88005 | 783 ft | 9 kts | 174° |
| 2026-04-22 11:18 | 45.63933 | 5.88011 | 783 ft | 12 kts | 176° |
| 2026-04-22 11:18 | 45.63837 | 5.88020 | 783 ft | 16 kts | 176° |
| 2026-04-22 11:18 | 45.63715 | 5.88030 | 781 ft | 19 kts | 176° |
| 2026-04-22 11:18 | 45.63584 | 5.88041 | 783 ft | 19 kts | 176° |
| 2026-04-22 11:19 | 45.63451 | 5.88052 | 783 ft | 20 kts | 176° |
| 2026-04-22 11:19 | 45.63310 | 5.88064 | 783 ft | 20 kts | 176° |
| 2026-04-22 11:19 | 45.63171 | 5.88076 | 785 ft | 20 kts | 176° |
| 2026-04-22 11:19 | 45.63029 | 5.88088 | 783 ft | 15 kts | 176° |
| 2026-04-22 11:20 | 45.62970 | 5.88128 | 784 ft | 9 kts | 151° |
| 2026-04-22 11:20 | 45.62912 | 5.88129 | 784 ft | 9 kts | 235° |
| 2026-04-22 11:20 | 45.62932 | 5.88090 | 784 ft | 0 kts | 358° |
| 2026-04-22 11:20 | 45.62938 | 5.88089 | 784 ft | 0 kts | 359° |
| 2026-04-22 11:21 | 45.63020 | 5.88087 | 783 ft | 44 kts | 358° |
| 2026-04-22 11:21 | 45.63587 | 5.88039 | 783 ft | 115 kts | 356° |
| 2026-04-22 11:21 | 45.64482 | 5.87957 | 1176 ft | 137 kts | 355° |
| 2026-04-22 11:21 | 45.65451 | 5.87862 | 1792 ft | 147 kts | 354° |
| 2026-04-22 11:22 | 45.66499 | 5.87747 | 2472 ft | 148 kts | 354° |
| 2026-04-22 11:22 | 45.67552 | 5.87647 | 2978 ft | 160 kts | 355° |
| 2026-04-22 11:22 | 45.68726 | 5.87536 | 3355 ft | 174 kts | 356° |
| 2026-04-22 11:22 | 45.69936 | 5.87436 | 3888 ft | 175 kts | 356° |
| 2026-04-22 11:23 | 45.71155 | 5.87341 | 4432 ft | 176 kts | 356° |
| 2026-04-22 11:23 | 45.72382 | 5.87252 | 4955 ft | 177 kts | 356° |
| 2026-04-22 11:23 | 45.73623 | 5.87164 | 5467 ft | 180 kts | 356° |
| 2026-04-22 11:23 | 45.74868 | 5.87085 | 5970 ft | 183 kts | 356° |
| 2026-04-22 11:24 | 45.76183 | 5.86998 | 6264 ft | 194 kts | 355° |
| 2026-04-22 11:24 | 45.77595 | 5.86899 | 6286 ft | 215 kts | 0° |
| 2026-04-22 11:24 | 45.79061 | 5.87642 | 6332 ft | 240 kts | 41° |
| 2026-04-22 11:24 | 45.80151 | 5.89411 | 6998 ft | 234 kts | 51° |
| 2026-04-22 11:25 | 45.81189 | 5.91240 | 7642 ft | 238 kts | 50° |
| 2026-04-22 11:25 | 45.82222 | 5.93071 | 8277 ft | 241 kts | 49° |
| 2026-04-22 11:25 | 45.82942 | 5.94319 | 8767 ft | 242 kts | 49° |
| 2026-04-22 11:25 | 45.84397 | 5.96821 | 9770 ft | 246 kts | 47° |
| 2026-04-22 11:26 | 45.85500 | 5.98670 | 10544 ft | 249 kts | 46° |
| 2026-04-22 11:26 | 45.86667 | 6.00577 | 10957 ft | 263 kts | 45° |
| 2026-04-22 11:26 | 45.87932 | 6.02585 | 11348 ft | 279 kts | 45° |
| 2026-04-22 11:26 | 45.89273 | 6.04699 | 11862 ft | 293 kts | 45° |
| 2026-04-22 11:27 | 45.90218 | 6.06169 | 12247 ft | 301 kts | 44° |
| 2026-04-22 11:27 | 45.91658 | 6.08394 | 12939 ft | 306 kts | 43° |
| 2026-04-22 11:27 | 45.93115 | 6.10653 | 13669 ft | 310 kts | 44° |
| 2026-04-22 11:27 | 45.94592 | 6.12949 | 14186 ft | 319 kts | 43° |
| 2026-04-22 11:28 | 45.96143 | 6.15338 | 14392 ft | 334 kts | 43° |
| 2026-04-22 11:28 | 45.97763 | 6.17829 | 14543 ft | 348 kts | 43° |
| 2026-04-22 11:28 | 45.99418 | 6.20412 | 14877 ft | 353 kts | 43° |
| 2026-04-22 11:28 | 46.01081 | 6.23018 | 15269 ft | 355 kts | 43° |
| 2026-04-22 11:29 | 46.02760 | 6.25634 | 15686 ft | 357 kts | 43° |
| 2026-04-22 11:29 | 46.04443 | 6.28272 | 16084 ft | 360 kts | 43° |
| 2026-04-22 11:29 | 46.06119 | 6.30907 | 16490 ft | 361 kts | 42° |
| 2026-04-22 11:29 | 46.07828 | 6.33562 | 16893 ft | 363 kts | 42° |
| 2026-04-22 11:30 | 46.09548 | 6.36246 | 17306 ft | 366 kts | 41° |
| 2026-04-22 11:30 | 46.11273 | 6.38955 | 17717 ft | 368 kts | 41° |
| 2026-04-22 11:30 | 46.13027 | 6.41724 | 18127 ft | 370 kts | 41° |
| 2026-04-22 11:30 | 46.14771 | 6.44450 | 18539 ft | 370 kts | 41° |
| 2026-04-22 11:31 | 46.16508 | 6.47155 | 18785 ft | 374 kts | 40° |
| 2026-04-22 11:31 | 46.18280 | 6.49927 | 18990 ft | 379 kts | 41° |
| 2026-04-22 11:31 | 46.20060 | 6.52719 | 19433 ft | 377 kts | 41° |
| 2026-04-22 11:31 | 46.21858 | 6.55554 | 19806 ft | 379 kts | 40° |
| 2026-04-22 11:32 | 46.23646 | 6.58376 | 20062 ft | 383 kts | 39° |
| 2026-04-22 11:32 | 46.25599 | 6.60953 | 20363 ft | 377 kts | 32° |
| 2026-04-22 11:32 | 46.27660 | 6.63282 | 20783 ft | 376 kts | 29° |
| 2026-04-22 11:32 | 46.29740 | 6.65511 | 21060 ft | 379 kts | 29° |
| 2026-04-22 11:33 | 46.31868 | 6.67761 | 21359 ft | 379 kts | 28° |
| 2026-04-22 11:33 | 46.34007 | 6.70015 | 21719 ft | 381 kts | 28° |
| 2026-04-22 11:33 | 46.36158 | 6.72282 | 22056 ft | 383 kts | 28° |
| 2026-04-22 11:33 | 46.38317 | 6.74569 | 22391 ft | 386 kts | 28° |
| 2026-04-22 11:34 | 46.40483 | 6.76879 | 22716 ft | 388 kts | 28° |
| 2026-04-22 11:34 | 46.42655 | 6.79210 | 23008 ft | 390 kts | 28° |
| 2026-04-22 11:34 | 46.44838 | 6.81567 | 23296 ft | 392 kts | 28° |
| 2026-04-22 11:34 | 46.47026 | 6.83941 | 23583 ft | 394 kts | 28° |
| 2026-04-22 11:35 | 46.49232 | 6.86348 | 23816 ft | 398 kts | 28° |
| 2026-04-22 11:35 | 46.51443 | 6.88763 | 24050 ft | 398 kts | 28° |
| 2026-04-22 11:35 | 46.53650 | 6.91180 | 24338 ft | 398 kts | 28° |
| 2026-04-22 11:35 | 46.55863 | 6.93600 | 24680 ft | 397 kts | 28° |
| 2026-04-22 11:36 | 46.58066 | 6.96013 | 25039 ft | 396 kts | 28° |
| 2026-04-22 11:36 | 46.60263 | 6.98423 | 25386 ft | 395 kts | 28° |
| 2026-04-22 11:36 | 46.62461 | 7.00805 | 25721 ft | 393 kts | 27° |
| 2026-04-22 11:36 | 46.64653 | 7.03176 | 26029 ft | 393 kts | 28° |
| 2026-04-22 11:37 | 46.66835 | 7.05573 | 26305 ft | 393 kts | 28° |
| 2026-04-22 11:37 | 46.69016 | 7.07975 | 26601 ft | 392 kts | 27° |
| 2026-04-22 11:37 | 46.71189 | 7.10343 | 26941 ft | 390 kts | 27° |
| 2026-04-22 11:37 | 46.73363 | 7.12695 | 27239 ft | 389 kts | 27° |
| 2026-04-22 11:38 | 46.75529 | 7.15046 | 27535 ft | 389 kts | 27° |
| 2026-04-22 11:38 | 46.77694 | 7.17415 | 27823 ft | 388 kts | 27° |
| 2026-04-22 11:38 | 46.82000 | 7.22143 | 28394 ft | 387 kts | 27° |
| 2026-04-22 11:39 | 46.84146 | 7.24509 | 28691 ft | 386 kts | 27° |
| 2026-04-22 11:39 | 46.86282 | 7.26878 | 28975 ft | 385 kts | 27° |
| 2026-04-22 11:39 | 46.88414 | 7.29253 | 29240 ft | 385 kts | 27° |
| 2026-04-22 11:39 | 46.90531 | 7.31625 | 29521 ft | 384 kts | 27° |
| 2026-04-22 11:40 | 46.92651 | 7.33974 | 29777 ft | 383 kts | 26° |
| 2026-04-22 11:40 | 46.94776 | 7.36319 | 30020 ft | 382 kts | 26° |
| 2026-04-22 11:40 | 46.99052 | 7.41035 | 30133 ft | 390 kts | 26° |
| 2026-04-22 11:41 | 47.03442 | 7.45893 | 30149 ft | 401 kts | 27° |
| 2026-04-22 11:41 | 47.07916 | 7.50871 | 30163 ft | 407 kts | 28° |
| 2026-04-22 11:42 | 47.12371 | 7.55913 | 30169 ft | 407 kts | 28° |
| 2026-04-22 11:42 | 47.16862 | 7.60988 | 30164 ft | 407 kts | 28° |
| 2026-04-22 11:43 | 47.21363 | 7.66041 | 30167 ft | 407 kts | 28° |
| 2026-04-22 11:43 | 47.25891 | 7.71075 | 30163 ft | 408 kts | 28° |
| 2026-04-22 11:44 | 47.30404 | 7.76151 | 30160 ft | 409 kts | 29° |
| 2026-04-22 11:44 | 47.34921 | 7.81258 | 30164 ft | 409 kts | 29° |
| 2026-04-22 11:45 | 47.39450 | 7.86350 | 30178 ft | 410 kts | 29° |
| 2026-04-22 11:45 | 47.43978 | 7.91500 | 30190 ft | 411 kts | 30° |
| 2026-04-22 11:46 | 47.48487 | 7.96676 | 30178 ft | 409 kts | 30° |
| 2026-04-22 11:46 | 47.53001 | 8.01801 | 30180 ft | 410 kts | 30° |
| 2026-04-22 11:47 | 47.57511 | 8.06970 | 30178 ft | 410 kts | 30° |
| 2026-04-22 11:47 | 47.62016 | 8.12115 | 30169 ft | 408 kts | 30° |
| 2026-04-22 11:48 | 47.66525 | 8.17237 | 30186 ft | 409 kts | 31° |
| 2026-04-22 11:48 | 47.71015 | 8.22428 | 30195 ft | 409 kts | 31° |
| 2026-04-22 11:49 | 47.75498 | 8.27620 | 30188 ft | 408 kts | 31° |
| 2026-04-22 11:49 | 47.79991 | 8.32785 | 30190 ft | 408 kts | 31° |
| 2026-04-22 11:50 | 47.84557 | 8.37755 | 30208 ft | 403 kts | 25° |
| 2026-04-22 11:50 | 47.89546 | 8.41366 | 30212 ft | 396 kts | 15° |
| 2026-04-22 11:51 | 47.94759 | 8.43931 | 30207 ft | 394 kts | 12° |
| 2026-04-22 11:51 | 48.00013 | 8.46281 | 30211 ft | 394 kts | 13° |
| 2026-04-22 11:52 | 48.05261 | 8.48706 | 30219 ft | 395 kts | 13° |
| 2026-04-22 11:52 | 48.10493 | 8.51214 | 30224 ft | 395 kts | 14° |
| 2026-04-22 11:53 | 48.15728 | 8.53742 | 30219 ft | 396 kts | 14° |
| 2026-04-22 11:53 | 48.20974 | 8.56259 | 30222 ft | 396 kts | 14° |
| 2026-04-22 11:54 | 48.26186 | 8.58734 | 30226 ft | 395 kts | 14° |
| 2026-04-22 11:54 | 48.31469 | 8.61233 | 30225 ft | 395 kts | 15° |
| 2026-04-22 11:55 | 48.36705 | 8.63789 | 30231 ft | 396 kts | 15° |
| 2026-04-22 11:55 | 48.41802 | 8.66251 | 30234 ft | 396 kts | 15° |
| 2026-04-22 11:56 | 48.47053 | 8.68804 | 30237 ft | 396 kts | 15° |
| 2026-04-22 11:56 | 48.52300 | 8.71343 | 30239 ft | 396 kts | 15° |
| 2026-04-22 11:57 | 48.57550 | 8.73874 | 30245 ft | 396 kts | 15° |
| 2026-04-22 11:57 | 48.62802 | 8.76381 | 30249 ft | 396 kts | 15° |
| 2026-04-22 11:58 | 48.68047 | 8.78950 | 30254 ft | 396 kts | 16° |
| 2026-04-22 11:58 | 48.73282 | 8.81546 | 30255 ft | 395 kts | 16° |
| 2026-04-22 11:59 | 48.78511 | 8.84068 | 30255 ft | 394 kts | 16° |
| 2026-04-22 11:59 | 48.83738 | 8.86591 | 30252 ft | 394 kts | 17° |
| 2026-04-22 12:00 | 48.88944 | 8.89184 | 30265 ft | 394 kts | 17° |
| 2026-04-22 12:00 | 48.94159 | 8.91758 | 30261 ft | 394 kts | 17° |
| 2026-04-22 12:01 | 48.99370 | 8.94338 | 30265 ft | 394 kts | 17° |
| 2026-04-22 12:01 | 49.04584 | 8.96918 | 30264 ft | 394 kts | 17° |
| 2026-04-22 12:02 | 49.09798 | 8.99519 | 30258 ft | 394 kts | 17° |
| 2026-04-22 12:02 | 49.15016 | 9.02117 | 30263 ft | 394 kts | 17° |
| 2026-04-22 12:03 | 49.16742 | 9.02981 | 30264 ft | 395 kts | 17° |
| 2026-04-22 12:03 | 49.25412 | 9.07301 | 30278 ft | 394 kts | 17° |
| 2026-04-22 12:04 | 49.30633 | 9.09898 | 30274 ft | 394 kts | 17° |
| 2026-04-22 12:04 | 49.35849 | 9.12494 | 30272 ft | 394 kts | 18° |
| 2026-04-22 12:05 | 49.41062 | 9.15080 | 30273 ft | 394 kts | 17° |
| 2026-04-22 12:05 | 49.45430 | 9.17259 | 30276 ft | 394 kts | 18° |
| 2026-04-22 12:06 | 49.51477 | 9.20329 | 30280 ft | 394 kts | 18° |
| 2026-04-22 12:06 | 49.56676 | 9.22974 | 30283 ft | 393 kts | 18° |
| 2026-04-22 12:07 | 49.61028 | 9.25190 | 30293 ft | 393 kts | 18° |
| 2026-04-22 12:07 | 49.67060 | 9.28262 | 30290 ft | 393 kts | 18° |
| 2026-04-22 12:08 | 49.72179 | 9.30886 | 30290 ft | 392 kts | 18° |
| 2026-04-22 12:08 | 49.77424 | 9.33555 | 30307 ft | 392 kts | 18° |
| 2026-04-22 12:09 | 49.82598 | 9.36208 | 30298 ft | 392 kts | 18° |
| 2026-04-22 12:09 | 49.86930 | 9.38436 | 30295 ft | 391 kts | 19° |
| 2026-04-22 12:10 | 49.92933 | 9.41523 | 30298 ft | 391 kts | 19° |
| 2026-04-22 12:10 | 49.98100 | 9.44180 | 30298 ft | 391 kts | 18° |
| 2026-04-22 12:11 | 50.02384 | 9.46384 | 30301 ft | 391 kts | 19° |
| 2026-04-22 12:11 | 50.07613 | 9.48647 | 30309 ft | 391 kts | 11° |
| 2026-04-22 12:12 | 50.13007 | 9.49762 | 30307 ft | 391 kts | 6° |
| 2026-04-22 12:12 | 50.18429 | 9.50532 | 30310 ft | 391 kts | 6° |
| 2026-04-22 12:13 | 50.23837 | 9.51331 | 30312 ft | 391 kts | 7° |
| 2026-04-22 12:13 | 50.24750 | 9.51472 | 30313 ft | 390 kts | 7° |